Time;durP1;ratioP1;P1;durP2;ratioP2;P2;SDS_P1;SDS_P2;PMS_P1;PMS_P2;Temp;Humidity;BMP_temperature;BMP_pressure;BME280_temperature;BME280_humidity;BME280_pressure;Samples;Min_cycle;Max_cycle;Signal;HPM_P1;HPM_P2
2024/01/24 00:02:17;;;;;;;8.13;1.83;;;6.60;99.90;;;;;;5092663;28;20246;-74
2024/01/24 00:04:45;;;;;;;4.37;2.00;;;6.60;99.90;;;;;;5092616;28;20200;-74
2024/01/24 00:07:11;;;;;;;7.17;2.83;;;6.60;99.90;;;;;;5092408;28;20219;-74
2024/01/24 00:09:38;;;;;;;6.80;1.80;;;6.60;99.90;;;;;;5092734;28;20605;-74
2024/01/24 00:12:06;;;;;;;6.00;1.70;;;6.60;99.90;;;;;;5092624;28;20196;-74
2024/01/24 00:14:32;;;;;;;7.00;2.00;;;6.70;99.90;;;;;;5092500;28;20382;-73
2024/01/24 00:16:59;;;;;;;5.57;2.07;;;6.70;99.90;;;;;;5092573;28;20226;-73
2024/01/24 00:19:26;;;;;;;4.00;1.83;;;6.70;99.90;;;;;;5092285;28;20568;-74
2024/01/24 00:21:54;;;;;;;5.23;2.00;;;6.80;99.90;;;;;;5092697;28;20201;-74
2024/01/24 00:24:21;;;;;;;8.50;2.63;;;6.90;99.90;;;;;;5092339;28;20705;-74
2024/01/24 00:26:47;;;;;;;6.43;2.00;;;6.90;99.90;;;;;;5092315;28;20196;-74
2024/01/24 00:29:14;;;;;;;5.53;1.77;;;6.90;99.90;;;;;;5092368;28;20204;-74
2024/01/24 00:31:41;;;;;;;5.27;1.73;;;6.90;99.90;;;;;;5092337;28;20196;-74
2024/01/24 00:34:07;;;;;;;6.30;2.00;;;7.00;99.90;;;;;;5092002;28;20204;-74
2024/01/24 00:36:34;;;;;;;9.03;2.00;;;7.10;99.90;;;;;;5092168;28;20695;-74
2024/01/24 00:39:02;;;;;;;5.73;2.10;;;7.10;99.90;;;;;;5092213;28;20256;-74
2024/01/24 00:41:29;;;;;;;5.97;2.37;;;7.10;99.90;;;;;;5092274;28;20206;-74
2024/01/24 00:43:56;;;;;;;3.70;1.70;;;7.10;99.90;;;;;;5092341;28;20210;-74
2024/01/24 00:46:22;;;;;;;7.67;2.00;;;7.20;99.90;;;;;;5092360;28;20204;-73
2024/01/24 00:48:49;;;;;;;5.87;2.00;;;7.20;99.90;;;;;;5092020;28;20207;-73
2024/01/24 00:51:15;;;;;;;4.07;1.67;;;7.20;99.90;;;;;;5092427;28;20200;-74
2024/01/24 00:53:49;;;;;;;10.03;2.10;;;7.30;99.90;;;;;;5092194;28;20250;-74
2024/01/24 00:56:18;;;;;;;6.00;2.37;;;7.30;99.90;;;;;;5092174;28;20305;-74
2024/01/24 00:58:44;;;;;;;4.43;1.80;;;7.50;99.90;;;;;;5092146;28;20283;-74
2024/01/24 01:01:11;;;;;;;5.03;1.60;;;7.70;99.90;;;;;;5094815;28;20238;-74
2024/01/24 01:03:38;;;;;;;4.43;1.60;;;7.80;99.90;;;;;;5095696;28;20666;-74
2024/01/24 01:06:06;;;;;;;5.00;1.90;;;7.80;99.90;;;;;;5095714;28;20250;-75
2024/01/24 01:08:32;;;;;;;7.03;2.07;;;7.70;99.90;;;;;;5095505;28;20725;-75
2024/01/24 01:11:00;;;;;;;5.27;1.73;;;7.70;99.90;;;;;;5095437;28;20196;-75
2024/01/24 01:13:28;;;;;;;5.23;2.20;;;7.80;99.90;;;;;;5095382;28;20230;-75
2024/01/24 01:15:54;;;;;;;6.37;2.07;;;7.80;99.90;;;;;;5095346;28;20223;-75
2024/01/24 01:18:21;;;;;;;7.67;2.03;;;7.80;99.90;;;;;;5095556;28;20211;-75
2024/01/24 01:20:48;;;;;;;6.67;1.93;;;7.80;99.90;;;;;;5095461;28;20540;-75
2024/01/24 01:23:14;;;;;;;6.73;1.60;;;7.90;99.90;;;;;;5095499;28;20200;-75
2024/01/24 01:25:41;;;;;;;4.40;1.80;;;7.90;99.90;;;;;;5095255;28;20207;-74
2024/01/24 01:28:08;;;;;;;5.47;1.77;;;8.00;99.90;;;;;;5095140;28;20232;-75
2024/01/24 01:30:36;;;;;;;3.10;1.60;;;7.90;99.90;;;;;;5095070;28;20200;-75
2024/01/24 01:33:03;;;;;;;4.30;1.77;;;8.00;99.90;;;;;;5095230;28;20287;-74
2024/01/24 01:35:29;;;;;;;4.63;1.93;;;8.00;99.90;;;;;;5094879;28;20699;-75
2024/01/24 01:37:56;;;;;;;6.37;2.17;;;8.10;99.90;;;;;;5095058;28;20258;-75
2024/01/24 01:40:23;;;;;;;5.47;1.90;;;8.10;99.90;;;;;;5094861;28;20200;-74
2024/01/24 01:42:49;;;;;;;5.20;1.90;;;8.20;99.90;;;;;;5094818;28;20226;-74
2024/01/24 01:45:16;;;;;;;3.57;1.33;;;8.20;99.90;;;;;;5095071;28;20208;-75
2024/01/24 01:47:45;;;;;;;7.20;2.00;;;8.20;99.90;;;;;;5094998;28;20287;-74
2024/01/24 01:50:15;;;;;;;7.43;1.63;;;8.20;99.90;;;;;;5094819;28;20200;-74
2024/01/24 01:52:42;;;;;;;5.23;1.80;;;8.20;99.90;;;;;;5094718;28;20207;-74
2024/01/24 01:55:10;;;;;;;5.63;1.80;;;8.20;99.90;;;;;;5094296;28;20215;-75
2024/01/24 01:57:40;;;;;;;4.20;1.50;;;8.30;99.90;;;;;;5094493;28;20249;-74
2024/01/24 02:00:09;;;;;;;6.57;1.80;;;8.40;99.90;;;;;;5094582;28;20228;-74
2024/01/24 02:02:37;;;;;;;6.10;2.13;;;8.40;99.90;;;;;;5094577;28;20201;-74
2024/01/24 02:05:05;;;;;;;5.60;2.20;;;8.40;99.90;;;;;;5094377;28;20705;-74
2024/01/24 02:07:32;;;;;;;5.73;1.90;;;8.50;99.90;;;;;;5094446;28;20291;-74
2024/01/24 02:09:58;;;;;;;3.10;1.23;;;8.40;99.90;;;;;;5094364;28;20583;-74
2024/01/24 02:12:25;;;;;;;4.40;1.90;;;8.60;99.90;;;;;;5094127;28;20245;-74
2024/01/24 02:14:52;;;;;;;7.70;2.10;;;8.60;99.90;;;;;;5094219;28;20204;-74
2024/01/24 02:17:18;;;;;;;5.20;1.67;;;8.60;99.90;;;;;;5094301;28;20197;-74
2024/01/24 02:19:46;;;;;;;6.80;1.70;;;8.60;99.90;;;;;;5094120;28;20673;-74
2024/01/24 02:22:14;;;;;;;3.87;1.60;;;8.60;99.90;;;;;;5094089;28;20228;-75
2024/01/24 02:24:42;;;;;;;4.33;2.00;;;8.60;99.90;;;;;;5093921;28;20196;-75
2024/01/24 02:27:09;;;;;;;3.60;1.60;;;8.60;99.90;;;;;;5093758;28;20760;-75
2024/01/24 02:29:35;;;;;;;4.77;1.70;;;8.60;99.90;;;;;;5094137;28;20287;-74
2024/01/24 02:32:02;;;;;;;3.87;1.80;;;8.60;99.90;;;;;;5093996;28;20205;-74
2024/01/24 02:34:29;;;;;;;3.10;1.47;;;8.70;99.90;;;;;;5093765;28;20201;-74
2024/01/24 02:36:55;;;;;;;2.90;1.50;;;8.80;99.90;;;;;;5093726;28;20224;-74
2024/01/24 02:39:22;;;;;;;3.90;1.80;;;8.80;99.90;;;;;;5094070;28;20200;-74
2024/01/24 02:41:50;;;;;;;3.43;1.60;;;8.80;99.90;;;;;;5093864;28;20224;-74
2024/01/24 02:44:17;;;;;;;4.33;1.47;;;8.80;99.90;;;;;;5093915;28;20203;-74
2024/01/24 02:46:44;;;;;;;4.07;1.40;;;8.80;99.90;;;;;;5093743;28;20250;-74
2024/01/24 02:49:11;;;;;;;2.37;1.50;;;8.70;99.90;;;;;;5093854;28;20313;-74
2024/01/24 02:51:37;;;;;;;4.70;1.50;;;8.70;99.90;;;;;;5093548;28;20204;-75
2024/01/24 02:54:05;;;;;;;5.23;1.70;;;8.80;99.90;;;;;;5093401;28;20651;-74
2024/01/24 02:56:33;;;;;;;5.17;1.70;;;8.80;99.90;;;;;;5093676;28;20310;-74
2024/01/24 02:59:01;;;;;;;6.23;1.77;;;8.80;99.90;;;;;;5093537;28;20196;-75
2024/01/24 03:01:28;;;;;;;4.17;1.60;;;8.80;99.90;;;;;;5093523;28;20262;-74
2024/01/24 03:03:54;;;;;;;4.70;1.73;;;8.80;99.90;;;;;;5093403;28;20197;-74
2024/01/24 03:06:21;;;;;;;7.07;1.80;;;8.80;99.90;;;;;;5093274;28;20196;-74
2024/01/24 03:08:49;;;;;;;6.97;1.77;;;8.80;99.90;;;;;;5093519;28;20200;-75
2024/01/24 03:11:16;;;;;;;2.67;1.40;;;8.80;99.90;;;;;;5093179;28;20556;-74
2024/01/24 03:13:43;;;;;;;7.50;1.90;;;8.80;99.90;;;;;;5093227;28;20206;-74
2024/01/24 03:16:11;;;;;;;6.20;1.70;;;8.80;99.90;;;;;;5093145;28;20220;-74
2024/01/24 03:18:38;;;;;;;4.63;1.83;;;8.80;99.90;;;;;;5093222;28;20200;-74
2024/01/24 03:21:06;;;;;;;5.97;2.00;;;8.80;99.90;;;;;;5093052;28;20200;-74
2024/01/24 03:23:33;;;;;;;5.97;1.80;;;8.80;99.90;;;;;;5092613;28;20192;-75
2024/01/24 03:25:59;;;;;;;3.90;1.77;;;8.80;99.90;;;;;;5093102;28;20224;-73
2024/01/24 03:28:26;;;;;;;4.30;2.00;;;8.80;99.90;;;;;;5092869;28;20274;-74
2024/01/24 03:30:53;;;;;;;4.77;1.70;;;8.90;99.90;;;;;;5092966;28;20197;-74
2024/01/24 03:33:21;;;;;;;6.63;1.80;;;8.90;99.90;;;;;;5092908;28;20192;-74
2024/01/24 03:35:48;;;;;;;7.27;2.00;;;9.00;99.90;;;;;;5093014;28;20639;-74
2024/01/24 03:38:14;;;;;;;3.77;1.53;;;9.00;99.90;;;;;;5092975;28;20192;-74
2024/01/24 03:40:41;;;;;;;4.53;1.87;;;9.00;99.90;;;;;;5092909;28;20199;-74
2024/01/24 03:43:09;;;;;;;7.57;1.90;;;9.10;99.90;;;;;;5092910;28;20204;-74
2024/01/24 03:45:37;;;;;;;3.67;1.77;;;9.10;99.90;;;;;;5092859;28;20192;-74
2024/01/24 03:48:04;;;;;;;3.43;1.83;;;9.10;99.90;;;;;;5092765;28;20196;-74
2024/01/24 03:50:32;;;;;;;2.50;1.40;;;9.10;99.90;;;;;;5092979;28;20234;-74
2024/01/24 03:52:59;;;;;;;8.40;1.90;;;9.10;99.90;;;;;;5092693;28;20196;-73
2024/01/24 03:55:25;;;;;;;5.57;1.90;;;9.10;99.90;;;;;;5092664;28;20196;-74
2024/01/24 03:57:52;;;;;;;4.87;2.07;;;9.10;99.90;;;;;;5092682;28;20196;-73
2024/01/24 04:00:19;;;;;;;4.23;1.87;;;9.20;99.90;;;;;;5092161;28;20204;-74
2024/01/24 04:02:45;;;;;;;4.03;1.73;;;9.20;99.90;;;;;;5092772;28;20204;-74
2024/01/24 04:05:12;;;;;;;4.47;1.90;;;9.20;99.90;;;;;;5092644;28;20295;-74
2024/01/24 04:07:40;;;;;;;5.97;1.70;;;9.20;99.90;;;;;;5092656;28;20204;-74
2024/01/24 04:10:08;;;;;;;4.67;1.50;;;9.30;99.90;;;;;;5092615;28;20254;-74
2024/01/24 04:12:34;;;;;;;5.73;2.30;;;9.30;99.90;;;;;;5092493;28;20200;-74
2024/01/24 04:15:02;;;;;;;2.90;1.40;;;9.40;99.90;;;;;;5092421;28;20200;-75
2024/01/24 04:17:30;;;;;;;6.67;1.90;;;9.50;99.90;;;;;;5092742;28;20255;-74
2024/01/24 04:19:57;;;;;;;2.67;1.50;;;9.50;99.90;;;;;;5092570;28;20617;-74
2024/01/24 04:22:23;;;;;;;4.00;1.77;;;9.60;99.90;;;;;;5092406;28;20192;-74
2024/01/24 04:24:51;;;;;;;4.60;2.00;;;9.60;99.90;;;;;;5092332;28;20673;-74
2024/01/24 04:27:18;;;;;;;4.93;1.90;;;9.60;99.90;;;;;;5092153;28;20285;-74
2024/01/24 04:29:45;;;;;;;3.60;1.50;;;9.70;99.90;;;;;;5092318;28;20675;-74
2024/01/24 04:32:12;;;;;;;6.70;2.20;;;9.70;99.90;;;;;;5092540;28;20197;-74
2024/01/24 04:34:38;;;;;;;5.63;2.00;;;9.70;99.90;;;;;;5094632;28;20203;-75
2024/01/24 04:37:05;;;;;;;6.77;1.80;;;9.60;99.90;;;;;;5096321;28;20274;-75
2024/01/24 04:39:31;;;;;;;5.73;1.50;;;9.70;99.90;;;;;;5096097;28;20200;-75
2024/01/24 04:41:59;;;;;;;5.77;1.60;;;9.60;99.90;;;;;;5096088;28;20197;-74
2024/01/24 04:44:26;;;;;;;4.03;1.80;;;9.70;99.90;;;;;;5096198;28;20266;-74
2024/01/24 04:46:53;;;;;;;7.90;1.80;;;9.60;99.90;;;;;;5095799;28;20716;-74
2024/01/24 04:49:19;;;;;;;6.03;1.97;;;9.70;99.90;;;;;;5096105;28;20200;-75
2024/01/24 04:51:48;;;;;;;3.30;1.57;;;9.60;99.90;;;;;;5095974;28;20202;-74
2024/01/24 04:54:15;;;;;;;2.83;1.50;;;9.70;99.90;;;;;;5095894;28;20200;-74
2024/01/24 04:56:45;;;;;;;7.40;1.80;;;9.60;99.90;;;;;;5095522;28;20220;-74
2024/01/24 04:59:14;;;;;;;3.77;1.60;;;9.60;99.90;;;;;;5095936;28;20196;-75
2024/01/24 05:01:41;;;;;;;4.93;2.43;;;9.60;99.90;;;;;;5095560;28;20586;-75
2024/01/24 05:04:07;;;;;;;3.47;1.63;;;9.60;99.90;;;;;;5095646;28;20204;-75
2024/01/24 05:06:35;;;;;;;2.47;1.50;;;9.70;99.90;;;;;;5095366;28;20598;-74
2024/01/24 05:09:01;;;;;;;4.00;1.60;;;9.70;99.90;;;;;;5095425;28;20258;-74
2024/01/24 05:11:28;;;;;;;4.07;1.83;;;9.70;99.90;;;;;;5095548;28;20208;-74
2024/01/24 05:13:59;;;;;;;5.77;1.90;;;9.70;99.90;;;;;;5095491;28;20284;-74
2024/01/24 05:16:28;;;;;;;3.77;1.70;;;9.70;99.90;;;;;;5095251;28;20220;-74
2024/01/24 05:18:55;;;;;;;5.00;1.90;;;9.70;99.90;;;;;;5095367;28;20224;-74
2024/01/24 05:21:22;;;;;;;3.87;1.70;;;9.70;99.90;;;;;;5095294;28;20567;-74
2024/01/24 05:23:49;;;;;;;2.80;1.90;;;9.60;99.90;;;;;;5095173;28;20207;-74
2024/01/24 05:26:15;;;;;;;3.90;1.70;;;9.70;99.90;;;;;;5095354;28;20203;-74
2024/01/24 05:28:42;;;;;;;5.90;2.07;;;9.70;99.90;;;;;;5094996;28;20564;-74
2024/01/24 05:31:09;;;;;;;4.37;1.60;;;9.70;99.90;;;;;;5095232;28;20220;-74
2024/01/24 05:33:37;;;;;;;4.00;1.70;;;9.70;99.90;;;;;;5094982;28;20242;-74
2024/01/24 05:36:04;;;;;;;4.87;1.53;;;9.80;99.90;;;;;;5094783;28;20578;-75
2024/01/24 05:38:33;;;;;;;5.27;1.87;;;9.80;99.90;;;;;;5094853;28;20200;-74
2024/01/24 05:40:59;;;;;;;3.93;1.90;;;9.80;99.90;;;;;;5095165;28;20287;-74
2024/01/24 05:43:26;;;;;;;4.83;1.90;;;9.80;99.90;;;;;;5095029;28;20249;-74
2024/01/24 05:45:52;;;;;;;4.20;1.50;;;9.80;99.90;;;;;;5094126;28;20213;-74
2024/01/24 05:48:19;;;;;;;5.30;1.80;;;9.80;99.90;;;;;;5094899;28;20208;-74
2024/01/24 05:50:47;;;;;;;3.57;1.77;;;9.90;99.90;;;;;;5094676;28;20192;-74
2024/01/24 05:53:14;;;;;;;6.37;1.73;;;9.90;99.90;;;;;;5095026;28;20611;-73
2024/01/24 05:55:40;;;;;;;4.23;1.40;;;10.00;99.90;;;;;;5094954;28;20204;-74
2024/01/24 05:58:06;;;;;;;4.77;1.87;;;9.90;99.90;;;;;;5094503;28;20231;-73
2024/01/24 06:00:33;;;;;;;9.20;5.20;;;9.90;99.90;;;;;;5094558;28;20197;-75
2024/01/24 06:02:59;;;;;;;2.20;1.73;;;10.00;99.90;;;;;;5094339;28;20204;-73
2024/01/24 06:05:26;;;;;;;4.63;2.33;;;9.90;99.90;;;;;;5094387;28;20204;-74
2024/01/24 06:07:54;;;;;;;3.03;1.90;;;9.80;99.90;;;;;;5094668;28;20200;-73
2024/01/24 06:10:21;;;;;;;4.63;2.57;;;10.00;99.90;;;;;;5094456;28;20207;-74
2024/01/24 06:12:47;;;;;;;3.43;1.70;;;10.00;99.90;;;;;;5094310;28;20279;-74
2024/01/24 06:15:14;;;;;;;3.37;1.70;;;10.10;99.90;;;;;;5094239;28;20219;-74
2024/01/24 06:17:41;;;;;;;2.83;1.47;;;10.10;99.90;;;;;;5094158;28;20273;-74
2024/01/24 06:20:09;;;;;;;5.43;1.80;;;10.10;99.90;;;;;;5094008;28;20677;-73
2024/01/24 06:22:36;;;;;;;3.50;2.10;;;10.10;99.90;;;;;;5094281;28;20705;-73
2024/01/24 06:25:07;;;;;;;5.60;1.90;;;10.20;99.90;;;;;;5094128;28;20200;-74
2024/01/24 06:27:34;;;;;;;3.87;1.87;;;10.30;99.90;;;;;;5093963;28;20256;-73
2024/01/24 06:30:00;;;;;;;3.13;1.97;;;10.30;99.90;;;;;;5093982;28;20245;-74
2024/01/24 06:32:27;;;;;;;2.07;1.70;;;10.30;99.90;;;;;;5093711;28;20536;-75
2024/01/24 06:34:54;;;;;;;7.00;2.10;;;10.30;99.90;;;;;;5093879;28;20204;-74
2024/01/24 06:37:20;;;;;;;3.83;1.63;;;10.10;99.90;;;;;;5093902;28;20232;-75
2024/01/24 06:39:47;;;;;;;2.77;1.80;;;10.20;99.90;;;;;;5093855;28;20547;-74
2024/01/24 06:42:15;;;;;;;3.33;1.90;;;10.10;99.90;;;;;;5093833;28;20203;-74
2024/01/24 06:44:42;;;;;;;3.70;1.63;;;10.00;99.90;;;;;;5093808;28;20219;-74
2024/01/24 06:47:08;;;;;;;4.13;1.77;;;9.90;99.90;;;;;;5093605;28;20193;-74
2024/01/24 06:49:35;;;;;;;2.03;1.43;;;9.90;99.90;;;;;;5093531;28;20253;-74
2024/01/24 06:52:02;;;;;;;2.83;1.77;;;10.00;99.90;;;;;;5093527;28;20207;-74
2024/01/24 06:54:27;;;;;;;2.60;1.73;;;9.90;99.90;;;;;;5093656;28;20220;-74
2024/01/24 06:56:54;;;;;;;2.90;1.87;;;10.00;99.90;;;;;;5092831;28;20682;-74
2024/01/24 06:59:22;;;;;;;4.27;2.00;;;9.90;99.90;;;;;;5093076;28;20196;-73
2024/01/24 07:01:48;;;;;;;4.70;1.90;;;9.90;99.90;;;;;;5093504;28;20447;-74
2024/01/24 07:04:15;;;;;;;3.43;1.70;;;9.90;99.90;;;;;;5093556;28;20196;-74
2024/01/24 07:06:42;;;;;;;3.10;1.63;;;9.80;99.90;;;;;;5093491;28;20201;-74
2024/01/24 07:09:08;;;;;;;3.17;1.80;;;9.90;99.90;;;;;;5093415;28;20257;-74
2024/01/24 07:11:38;;;;;;;2.90;1.87;;;9.80;99.90;;;;;;5093269;28;20204;-73
2024/01/24 07:14:05;;;;;;;3.40;1.70;;;9.70;99.90;;;;;;5093198;28;20208;-73
2024/01/24 07:16:33;;;;;;;4.07;1.70;;;9.80;99.90;;;;;;5093358;28;20249;-74
2024/01/24 07:18:59;;;;;;;4.73;1.60;;;9.80;99.90;;;;;;5093411;28;20269;-75
2024/01/24 07:21:26;;;;;;;3.50;1.67;;;9.80;99.90;;;;;;5092916;28;20241;-74
2024/01/24 07:23:53;;;;;;;4.37;1.90;;;9.70;99.90;;;;;;5093110;28;20281;-74
2024/01/24 07:26:19;;;;;;;5.17;1.90;;;9.70;99.90;;;;;;5092944;28;20245;-74
2024/01/24 07:28:46;;;;;;;2.27;1.77;;;9.80;99.90;;;;;;5092892;28;20232;-74
2024/01/24 07:31:12;;;;;;;4.60;2.03;;;9.80;99.90;;;;;;5092996;28;20656;-74
2024/01/24 07:33:41;;;;;;;2.93;1.93;;;9.80;99.90;;;;;;5093123;28;20254;-74
2024/01/24 07:36:08;;;;;;;2.97;1.80;;;9.80;99.90;;;;;;5093011;28;20204;-74
2024/01/24 07:38:35;;;;;;;2.27;1.80;;;9.90;99.90;;;;;;5092781;28;20220;-75
2024/01/24 07:41:01;;;;;;;4.13;2.10;;;9.90;99.90;;;;;;5092931;28;20197;-75
2024/01/24 07:43:29;;;;;;;3.80;2.10;;;9.90;99.90;;;;;;5092651;28;20701;-75
2024/01/24 07:45:55;;;;;;;5.30;2.00;;;10.00;99.90;;;;;;5092335;28;20200;-74
2024/01/24 07:48:22;;;;;;;4.30;1.93;;;9.90;99.90;;;;;;5092504;28;20667;-74
2024/01/24 07:50:50;;;;;;;3.33;1.93;;;9.90;99.90;;;;;;5092864;28;20713;-74
2024/01/24 07:53:17;;;;;;;4.07;1.90;;;9.90;99.90;;;;;;5093328;28;20656;-74
2024/01/24 07:55:44;;;;;;;3.50;1.90;;;9.80;99.90;;;;;;5092753;28;20203;-74
2024/01/24 07:58:10;;;;;;;3.27;1.70;;;9.80;99.90;;;;;;5092792;28;20710;-74
2024/01/24 08:00:37;;;;;;;2.47;1.90;;;9.80;99.90;;;;;;5092897;28;20201;-75
2024/01/24 08:03:05;;;;;;;2.57;1.80;;;9.70;99.90;;;;;;5092764;28;20647;-75
2024/01/24 08:05:32;;;;;;;2.23;1.47;;;9.50;99.90;;;;;;5092751;28;20200;-76
2024/01/24 08:08:01;;;;;;;3.67;2.10;;;9.60;99.90;;;;;;5092703;28;20601;-76
2024/01/24 08:10:28;;;;;;;2.97;1.70;;;9.60;99.90;;;;;;5096415;28;20256;-82
2024/01/24 08:12:54;;;;;;;2.67;1.90;;;9.60;99.90;;;;;;5096922;28;20246;-78
2024/01/24 08:15:21;;;;;;;4.20;2.20;;;9.60;99.90;;;;;;5098964;28;20200;-77
2024/01/24 08:17:48;;;;;;;2.67;1.80;;;9.60;99.90;;;;;;5096953;28;20575;-78
2024/01/24 08:20:15;;;;;;;3.13;1.80;;;9.50;99.90;;;;;;5096890;28;20238;-77
2024/01/24 08:22:42;;;;;;;6.83;2.03;;;9.60;99.90;;;;;;5096673;28;20200;-79
2024/01/24 08:25:10;;;;;;;4.87;2.00;;;9.60;99.90;;;;;;5096404;28;20211;-78
2024/01/24 08:27:37;;;;;;;4.13;1.70;;;9.70;99.90;;;;;;5096240;28;20633;-78
2024/01/24 08:30:05;;;;;;;3.30;1.90;;;9.70;99.90;;;;;;5098335;28;20667;-84
2024/01/24 08:32:32;;;;;;;4.00;1.53;;;9.80;99.90;;;;;;5098224;28;20196;-84
2024/01/24 08:34:58;;;;;;;6.53;3.70;;;9.80;99.90;;;;;;5097870;28;20197;-83
2024/01/24 08:37:25;;;;;;;3.63;2.10;;;9.80;99.90;;;;;;5097200;28;20216;-83
2024/01/24 08:39:52;;;;;;;5.20;2.03;;;9.80;99.90;;;;;;5097378;28;20208;-85
2024/01/24 08:42:20;;;;;;;3.70;2.07;;;9.80;99.90;;;;;;5097416;28;20228;-85
2024/01/24 08:44:46;;;;;;;5.43;2.97;;;9.80;99.90;;;;;;5094996;28;20200;-84
2024/01/24 08:47:13;;;;;;;2.63;1.93;;;9.80;99.90;;;;;;5084038;28;20298;-81
2024/01/24 08:49:40;;;;;;;3.20;2.00;;;9.80;99.90;;;;;;5057080;28;20210;-81
2024/01/24 08:52:07;;;;;;;6.97;2.00;;;9.90;99.90;;;;;;5056287;28;20205;-85
2024/01/24 08:54:33;;;;;;;2.77;1.97;;;9.90;99.90;;;;;;5068146;28;20212;-80
2024/01/24 08:57:00;;;;;;;2.20;1.50;;;10.00;99.90;;;;;;5057496;28;20603;-82
2024/01/24 08:59:28;;;;;;;2.07;1.57;;;10.00;99.90;;;;;;5060056;28;20201;-85
2024/01/24 09:01:56;;;;;;;1.80;1.50;;;10.00;99.90;;;;;;5056542;28;20687;-80
2024/01/24 09:04:23;;;;;;;3.23;1.70;;;10.20;99.90;;;;;;5055882;28;20194;-80
2024/01/24 09:06:50;;;;;;;1.57;1.40;;;10.20;99.90;;;;;;5056055;28;20259;-79
2024/01/24 09:09:18;;;;;;;3.60;1.50;;;10.30;99.90;;;;;;5056028;28;20209;-79
2024/01/24 09:11:45;;;;;;;2.80;1.53;;;10.30;99.90;;;;;;5055779;28;20244;-79
2024/01/24 09:14:12;;;;;;;2.10;1.70;;;10.40;99.90;;;;;;5055644;28;20198;-79
2024/01/24 09:16:40;;;;;;;2.27;1.47;;;10.40;99.90;;;;;;5055568;28;20201;-80
2024/01/24 09:19:06;;;;;;;3.60;2.80;;;10.40;99.90;;;;;;5055493;28;20317;-82
2024/01/24 09:21:33;;;;;;;3.63;1.60;;;10.40;99.90;;;;;;5067046;28;20201;-78
2024/01/24 09:23:59;;;;;;;3.93;2.73;;;10.30;99.90;;;;;;5095125;28;20193;-80
2024/01/24 09:26:26;;;;;;;3.27;2.17;;;10.30;99.90;;;;;;5096020;28;20200;-80
2024/01/24 09:28:53;;;;;;;4.20;2.40;;;10.20;99.90;;;;;;5095714;28;20319;-80
2024/01/24 09:31:19;;;;;;;2.23;1.90;;;10.30;99.90;;;;;;5109783;28;20196;-80
2024/01/24 09:33:47;;;;;;;2.80;1.77;;;10.30;99.90;;;;;;5107135;28;20218;-80
2024/01/24 09:36:14;;;;;;;3.00;1.93;;;10.30;99.90;;;;;;5095917;28;20200;-80
2024/01/24 09:38:43;;;;;;;2.60;1.47;;;10.40;99.90;;;;;;5095904;28;20311;-82
2024/01/24 09:41:19;;;;;;;1.77;1.40;;;10.50;99.90;;;;;;5095628;28;20197;-79
2024/01/24 09:43:47;;;;;;;3.03;1.37;;;10.60;99.90;;;;;;5097610;28;20682;-87
2024/01/24 09:46:16;;;;;;;1.63;1.10;;;10.20;99.90;;;;;;5100553;28;20204;-91
2024/01/24 09:48:45;;;;;;;3.07;1.60;;;10.10;99.90;;;;;;5115028;28;20177;-90
2024/01/24 09:51:14;;;;;;;4.53;3.40;;;10.10;99.90;;;;;;5101696;28;20279;-86
2024/01/24 09:53:45;;;;;;;2.33;1.30;;;10.30;99.90;;;;;;5097562;28;20721;-87
2024/01/24 09:56:13;;;;;;;2.67;1.80;;;10.50;99.90;;;;;;5097937;28;20234;-83
2024/01/24 09:58:40;;;;;;;1.40;1.00;;;10.50;99.90;;;;;;5096421;28;20228;-87
2024/01/24 10:01:12;;;;;;;3.20;1.37;;;10.70;99.90;;;;;;5098444;28;20196;-86
2024/01/24 10:03:39;;;;;;;1.43;1.20;;;11.00;99.90;;;;;;5097654;28;20291;-86
2024/01/24 10:06:09;;;;;;;2.17;1.40;;;11.30;99.90;;;;;;5098309;28;20211;-86
2024/01/24 10:08:37;;;;;;;1.90;1.00;;;11.70;99.90;;;;;;5099032;28;20659;-87
2024/01/24 10:11:04;;;;;;;1.20;1.10;;;11.80;99.90;;;;;;5096805;28;20200;-82
2024/01/24 10:13:31;;;;;;;1.60;1.30;;;11.30;99.90;;;;;;5094176;28;20201;-82
2024/01/24 10:16:05;;;;;;;4.73;1.40;;;11.00;99.90;;;;;;5099267;28;20291;-92
2024/01/24 10:18:32;;;;;;;2.00;1.10;;;11.10;99.90;;;;;;5103025;28;20269;-76
2024/01/24 10:21:01;;;;;;;2.17;1.07;;;11.40;99.90;;;;;;5094089;28;20204;-75
2024/01/24 10:23:29;;;;;;;1.60;1.20;;;11.70;99.90;;;;;;5094368;28;20226;-76
2024/01/24 10:25:57;;;;;;;0.97;0.97;;;11.70;99.90;;;;;;5094113;28;20196;-77
2024/01/24 10:28:24;;;;;;;1.00;0.90;;;11.60;99.90;;;;;;5093959;28;20305;-76
2024/01/24 10:30:51;;;;;;;0.90;0.90;;;11.60;99.90;;;;;;5093310;28;20204;-76
2024/01/24 10:33:18;;;;;;;1.87;1.00;;;11.50;99.90;;;;;;5093952;28;20232;-75
2024/01/24 10:35:46;;;;;;;0.73;0.70;;;11.50;99.90;;;;;;5094130;28;20197;-76
2024/01/24 10:38:13;;;;;;;0.90;0.90;;;11.60;99.90;;;;;;5093965;28;20216;-77
2024/01/24 10:40:40;;;;;;;0.80;0.80;;;11.70;99.90;;;;;;5094350;28;20207;-77
2024/01/24 10:43:13;;;;;;;1.83;0.87;;;11.80;99.90;;;;;;5093970;28;20200;-77
2024/01/24 10:45:43;;;;;;;1.00;0.73;;;11.80;99.90;;;;;;5094097;28;20253;-76
2024/01/24 10:48:11;;;;;;;0.60;0.60;;;11.90;99.90;;;;;;5094194;28;20602;-77
2024/01/24 10:50:39;;;;;;;0.70;0.70;;;11.90;99.90;;;;;;5093828;28;20249;-77
2024/01/24 10:53:06;;;;;;;1.23;0.60;;;11.90;99.90;;;;;;5094024;28;20207;-77
2024/01/24 10:55:33;;;;;;;0.80;0.70;;;11.70;99.90;;;;;;5093972;28;20681;-76
2024/01/24 10:58:00;;;;;;;0.70;0.70;;;11.70;99.90;;;;;;5093622;28;20242;-76
2024/01/24 11:00:29;;;;;;;0.60;0.60;;;11.60;99.90;;;;;;5093623;28;20705;-76
2024/01/24 11:02:56;;;;;;;1.60;0.70;;;11.50;99.90;;;;;;5093693;28;20200;-76
2024/01/24 11:05:28;;;;;;;0.83;0.70;;;11.50;99.90;;;;;;5093492;28;20196;-75
2024/01/24 11:08:01;;;;;;;0.70;0.60;;;11.60;99.90;;;;;;5093840;28;20606;-76
2024/01/24 11:10:32;;;;;;;0.80;0.80;;;11.50;99.90;;;;;;5093605;28;20246;-85
2024/01/24 11:13:01;;;;;;;2.43;1.00;;;11.50;99.90;;;;;;5093610;28;20598;-75
2024/01/24 11:15:31;;;;;;;0.60;0.60;;;11.40;99.90;;;;;;5093338;28;20196;-74
2024/01/24 11:18:20;;;;;;;3.93;0.70;;;11.50;99.90;;;;;;5093229;28;20200;-74
2024/01/24 11:20:47;;;;;;;1.03;0.80;;;11.60;99.90;;;;;;5093433;28;20208;-78
2024/01/24 11:23:33;;;;;;;1.70;0.93;;;11.30;99.90;;;;;;5090832;28;20805;-76
2024/01/24 11:25:59;;;;;;;1.50;1.00;;;11.30;99.90;;;;;;5053245;28;20201;-80
2024/01/24 11:28:26;;;;;;;1.30;1.10;;;11.20;99.90;;;;;;5063496;28;20270;-78
2024/01/24 11:30:54;;;;;;;3.37;1.10;;;11.20;99.90;;;;;;5072638;28;20254;-78
2024/01/24 11:33:21;;;;;;;1.50;1.07;;;11.20;99.90;;;;;;5073020;28;20205;-79
2024/01/24 11:35:50;;;;;;;2.17;0.90;;;11.20;99.90;;;;;;5073062;28;20213;-79
2024/01/24 11:38:36;;;;;;;0.80;0.70;;;11.30;99.90;;;;;;5072742;28;20271;-78
2024/01/24 11:41:11;;;;;;;2.23;1.10;;;11.60;99.90;;;;;;5072701;28;20193;-78
2024/01/24 11:43:37;;;;;;;1.80;0.97;;;11.60;99.90;;;;;;5072113;28;20729;-79
2024/01/24 11:46:07;;;;;;;2.90;1.00;;;13.70;99.90;;;;;;5072950;28;20223;-78
2024/01/24 11:48:36;;;;;;;2.60;0.90;;;14.00;99.90;;;;;;5072642;28;20573;-79
2024/01/24 11:51:04;;;;;;;2.07;1.10;;;15.00;99.90;;;;;;5072821;28;20194;-78
2024/01/24 11:53:30;;;;;;;1.50;0.95;;;15.80;99.90;;;;;;5072819;28;20200;-79
2024/01/24 11:55:59;;;;;;;2.20;1.20;;;16.00;99.90;;;;;;5073971;28;20205;-80
2024/01/24 11:58:28;;;;;;;2.80;1.00;;;15.00;99.90;;;;;;5073189;28;20308;-78
2024/01/24 12:00:55;;;;;;;2.47;1.10;;;14.20;99.90;;;;;;5073085;28;20768;-79
2024/01/24 12:03:24;;;;;;;2.57;1.30;;;15.00;99.90;;;;;;5072747;28;20258;-79
2024/01/24 12:05:51;;;;;;;3.78;1.27;;;16.40;99.90;;;;;;5072593;28;20193;-79
2024/01/24 12:08:18;;;;;;;2.88;1.27;;;16.00;99.90;;;;;;5072829;28;20205;-79
2024/01/24 12:10:44;;;;;;;4.25;1.40;;;14.90;99.90;;;;;;5072781;28;20548;-79
2024/01/24 12:13:12;;;;;;;3.40;1.27;;;14.70;99.90;;;;;;5072665;28;20196;-79
2024/01/24 12:15:39;;;;;;;3.53;1.20;;;15.50;99.90;;;;;;5072839;28;20247;-81
2024/01/24 12:18:08;;;;;;;2.00;1.23;;;14.00;99.90;;;;;;5075868;28;20195;-80
2024/01/24 12:20:37;;;;;;;3.47;1.20;;;14.90;99.90;;;;;;5092594;28;20196;-78
2024/01/24 12:23:04;;;;;;;2.20;1.00;;;14.20;99.90;;;;;;5092307;28;20659;-79
2024/01/24 12:25:31;;;;;;;2.77;1.10;;;12.70;99.90;;;;;;5092723;28;20204;-80
2024/01/24 12:27:58;;;;;;;2.83;1.03;;;12.30;99.90;;;;;;5092420;28;20228;-80
2024/01/24 12:30:26;;;;;;;4.10;1.40;;;12.20;99.90;;;;;;5092669;28;20200;-80
2024/01/24 12:32:56;;;;;;;2.73;1.10;;;12.20;99.90;;;;;;5092820;28;20201;-81
2024/01/24 12:35:24;;;;;;;1.10;1.00;;;12.20;99.90;;;;;;5093081;28;20203;-81
2024/01/24 12:37:52;;;;;;;1.80;1.30;;;13.80;99.90;;;;;;5092653;28;20598;-80
2024/01/24 12:40:19;;;;;;;1.90;0.93;;;15.40;99.90;;;;;;5092523;28;20590;-80
2024/01/24 12:42:46;;;;;;;3.43;1.20;;;15.00;99.90;;;;;;5092446;28;20563;-79
2024/01/24 12:45:13;;;;;;;2.73;1.27;;;15.00;99.90;;;;;;5092281;28;20287;-79
2024/01/24 12:47:40;;;;;;;4.27;1.20;;;14.90;99.90;;;;;;5092351;28;20207;-80
2024/01/24 12:50:10;;;;;;;2.57;1.23;;;15.10;99.90;;;;;;5092633;28;20204;-81
2024/01/24 12:52:37;;;;;;;2.80;1.20;;;15.80;99.90;;;;;;5091133;28;20196;-77
2024/01/24 12:55:05;;;;;;;4.47;1.38;;;16.20;99.90;;;;;;5093111;28;20640;-81